Language: 


Des rapports , des résumés tant et plus, au choix de chacun....


Données Historiques de Météogheer
Journalier Rapport pour Janvier 10, 2017 Unitée:  Les deux    Impériale   Métrique
Suivant Jour »
Journalier Hebdomadaire Mensuel Annuel Sur mesure
  Max: Min: Moyenne:
Température: 46.2 °F /  7.9 °C 35.4 °F /  1.9 °C 41.2 °F /  5.1 °C
Point de rosée: 44.8 °F /  7.1 °C 34.9 °F /  1.6 °C 40.1 °F /  4.5 °C
Humidité: 98% 93% 96%
Vent: 9.8mph /  15.8km/h - 2.8mph /  4.5km/h
Rafales: 12.1mph /  19.5km/h - -
Vent- - West
Pression: 29.9 in /  1013.1 hPa 29.7 in /  1007.0 hPa -
Pluie: 0.02 in /  0.5 mm    
Historical Graphs
 
 
Données tabulaires pour Janvier 10, 2017
Heure Température Point de rosée Pression Vent Vent Rafales Humidité Pluie Taux (Horaire) Conditions
00:02 44.2 °F /  6.8 °C 42.6 °F /  5.9 °C 29.8in /  1009.0hPa NW 4.5mph /  7.2km/h 10.3mph /  16.6km/h 94% 0.07in /  1.8mm
00:07 44.2 °F /  6.8 °C 42.8 °F /  6.0 °C 29.8in /  1009.0hPa NNW 7.2mph /  11.6km/h 9.4mph /  15.1km/h 95% 0.07in /  1.8mm
00:12 43.9 °F /  6.6 °C 42.3 °F /  5.7 °C 29.8in /  1009.0hPa NNW 7.8mph /  12.6km/h 9.4mph /  15.1km/h 94% 0.06in /  1.5mm
00:17 43.5 °F /  6.4 °C 42.1 °F /  5.6 °C 29.8in /  1009.0hPa NNW 3.8mph /  6.1km/h 12.1mph /  19.5km/h 94% 0.06in /  1.5mm
00:22 43.5 °F /  6.4 °C 41.9 °F /  5.5 °C 29.8in /  1008.0hPa Calm   12.1mph /  19.5km/h 94% 0.06in /  1.5mm
00:27 43.3 °F /  6.3 °C 41.7 °F /  5.4 °C 29.8in /  1008.0hPa Calm   7.4mph /  11.9km/h 94% 0.06in /  1.5mm
00:32 43 °F /  6.1 °C 41.4 °F /  5.2 °C 29.8in /  1008.0hPa WNW 2.5mph /  4.0km/h 5.8mph /  9.3km/h 94% 0.06in /  1.5mm
00:37 42.8 °F /  6.0 °C 41.2 °F /  5.1 °C 29.8in /  1008.0hPa WNW 1.3mph /  2.1km/h 5.8mph /  9.3km/h 94% 0.06in /  1.5mm
00:42 42.6 °F /  5.9 °C 41.4 °F /  5.2 °C 29.8in /  1008.0hPa NW 3.8mph /  6.1km/h 6.3mph /  10.1km/h 95% 0.06in /  1.5mm
00:47 42.6 °F /  5.9 °C 41.4 °F /  5.2 °C 29.8in /  1008.0hPa NNW 3.8mph /  6.1km/h 7.6mph /  12.2km/h 95% 0.06in /  1.5mm
00:52 42.6 °F /  5.9 °C 41.4 °F /  5.2 °C 29.8in /  1009.0hPa NNW 3.4mph /  5.5km/h 7.6mph /  12.2km/h 95% 0in /  0.0mm
00:57 42.6 °F /  5.9 °C 41.4 °F /  5.2 °C 29.8in /  1009.0hPa WNW 4mph /  6.4km/h 7.6mph /  12.2km/h 95% 0in /  0.0mm
01:02 42.6 °F /  5.9 °C 41.4 °F /  5.2 °C 29.8in /  1009.0hPa WSW 5.4mph /  8.7km/h 7.8mph /  12.6km/h 95% 0in /  0.0mm
01:07 42.6 °F /  5.9 °C 41.4 °F /  5.2 °C 29.8in /  1009.0hPa WSW 4mph /  6.4km/h 7.8mph /  12.6km/h 95% 0in /  0.0mm
01:12 42.8 °F /  6.0 °C 41.4 °F /  5.2 °C 29.8in /  1009.0hPa WSW 4mph /  6.4km/h 10.1mph /  16.3km/h 95% 0in /  0.0mm
01:17 42.6 °F /  5.9 °C 41.4 °F /  5.2 °C 29.8in /  1009.0hPa WNW 3.4mph /  5.5km/h 10.1mph /  16.3km/h 95% 0in /  0.0mm
01:22 42.4 °F /  5.8 °C 41.2 °F /  5.1 °C 29.8in /  1009.0hPa WNW 3.4mph /  5.5km/h 7.6mph /  12.2km/h 95% 0in /  0.0mm
01:27 42.1 °F /  5.6 °C 40.6 °F /  4.8 °C 29.8in /  1009.0hPa West 2.5mph /  4.0km/h 7.4mph /  11.9km/h 95% 0in /  0.0mm
01:32 42.1 °F /  5.6 °C 40.6 °F /  4.8 °C 29.8in /  1009.0hPa West 2.7mph /  4.3km/h 7.4mph /  11.9km/h 95% 0in /  0.0mm
01:37 41.9 °F /  5.5 °C 40.6 °F /  4.8 °C 29.8in /  1009.0hPa Calm   7.4mph /  11.9km/h 95% 0in /  0.0mm
01:42 41.5 °F /  5.3 °C 40.3 °F /  4.6 °C 29.8in /  1009.0hPa West 3.4mph /  5.5km/h 5.8mph /  9.3km/h 95% 0in /  0.0mm
01:47 41.4 °F /  5.2 °C 39.9 °F /  4.4 °C 29.8in /  1009.0hPa West 3.6mph /  5.8km/h 6.3mph /  10.1km/h 95% 0in /  0.0mm
01:52 41.2 °F /  5.1 °C 39.7 °F /  4.3 °C 29.8in /  1009.0hPa SSW 2.9mph /  4.7km/h 6.3mph /  10.1km/h 95% 0in /  0.0mm
01:57 41 °F /  5.0 °C 39.7 °F /  4.3 °C 29.8in /  1009.0hPa West 3.8mph /  6.1km/h 5.4mph /  8.7km/h 95% 0in /  0.0mm
02:02 40.8 °F /  4.9 °C 39.6 °F /  4.2 °C 29.8in /  1009.0hPa West 4.9mph /  7.9km/h 5.4mph /  8.7km/h 95% 0in /  0.0mm
02:07 40.5 °F /  4.7 °C 39.4 °F /  4.1 °C 29.8in /  1009.0hPa West 6mph /  9.7km/h 6.5mph /  10.5km/h 96% 0in /  0.0mm
02:12 40.3 °F /  4.6 °C 39.2 °F /  4.0 °C 29.8in /  1009.0hPa West 4mph /  6.4km/h 6.5mph /  10.5km/h 96% 0in /  0.0mm
02:17 39.9 °F /  4.4 °C 38.8 °F /  3.8 °C 29.8in /  1009.0hPa West 4.9mph /  7.9km/h 6mph /  9.7km/h 96% 0in /  0.0mm
02:22 39.7 °F /  4.3 °C 38.7 °F /  3.7 °C 29.8in /  1009.0hPa West 3.6mph /  5.8km/h 5.4mph /  8.7km/h 96% 0in /  0.0mm
02:27 39.4 °F /  4.1 °C 38.5 °F /  3.6 °C 29.8in /  1009.0hPa WSW 4mph /  6.4km/h 5.4mph /  8.7km/h 96% 0in /  0.0mm
02:32 39 °F /  3.9 °C 37.9 °F /  3.3 °C 29.8in /  1009.0hPa WSW 4.3mph /  6.9km/h 5.6mph /  9.0km/h 96% 0in /  0.0mm
02:37 38.8 °F /  3.8 °C 37.8 °F /  3.2 °C 29.8in /  1009.0hPa WSW 4.9mph /  7.9km/h 6.3mph /  10.1km/h 96% 0in /  0.0mm
02:42 38.8 °F /  3.8 °C 37.8 °F /  3.2 °C 29.8in /  1009.0hPa West 4.7mph /  7.6km/h 6.3mph /  10.1km/h 96% 0in /  0.0mm
02:48 38.7 °F /  3.7 °C 37.8 °F /  3.2 °C 29.8in /  1009.0hPa WSW 4.9mph /  7.9km/h 5.6mph /  9.0km/h 96% 0in /  0.0mm
02:53 38.5 °F /  3.6 °C 37.2 °F /  2.9 °C 29.8in /  1009.0hPa WSW 3.1mph /  5.0km/h 5.6mph /  9.0km/h 96% 0in /  0.0mm
02:58 37.9 °F /  3.3 °C 37 °F /  2.8 °C 29.8in /  1009.0hPa WSW 3.6mph /  5.8km/h 4mph /  6.4km/h 96% 0in /  0.0mm
03:03 37.9 °F /  3.3 °C 37 °F /  2.8 °C 29.8in /  1009.0hPa WSW 4.7mph /  7.6km/h 4.9mph /  7.9km/h 96% 0in /  0.0mm
03:08 37.9 °F /  3.3 °C 37 °F /  2.8 °C 29.8in /  1009.0hPa West 4.7mph /  7.6km/h 4.9mph /  7.9km/h 96% 0in /  0.0mm
03:13 37.8 °F /  3.2 °C 37 °F /  2.8 °C 29.8in /  1009.0hPa West 5.8mph /  9.3km/h 5.8mph /  9.3km/h 97% 0in /  0.0mm
03:18 37.8 °F /  3.2 °C 37 °F /  2.8 °C 29.8in /  1009.0hPa West 3.8mph /  6.1km/h 5.8mph /  9.3km/h 97% 0in /  0.0mm
03:23 37.8 °F /  3.2 °C 37 °F /  2.8 °C 29.8in /  1009.0hPa West 4.9mph /  7.9km/h 5.8mph /  9.3km/h 97% 0in /  0.0mm
03:28 37.6 °F /  3.1 °C 36.9 °F /  2.7 °C 29.8in /  1009.0hPa WSW 4.3mph /  6.9km/h 5.4mph /  8.7km/h 97% 0in /  0.0mm
03:33 37.2 °F /  2.9 °C 36.3 °F /  2.4 °C 29.8in /  1009.0hPa WSW 2.9mph /  4.7km/h 4.3mph /  6.9km/h 96% 0in /  0.0mm
03:38 36.9 °F /  2.7 °C 36.1 °F /  2.3 °C 29.8in /  1009.0hPa WSW 3.6mph /  5.8km/h 4.3mph /  6.9km/h 97% 0in /  0.0mm
03:43 36.7 °F /  2.6 °C 35.8 °F /  2.1 °C 29.8in /  1009.0hPa WSW 3.8mph /  6.1km/h 4mph /  6.4km/h 97% 0in /  0.0mm
03:48 36.3 °F /  2.4 °C 35.6 °F /  2.0 °C 29.8in /  1009.0hPa WSW 3.6mph /  5.8km/h 4.3mph /  6.9km/h 97% 0in /  0.0mm
03:53 36.7 °F /  2.6 °C 35.8 °F /  2.1 °C 29.8in /  1009.0hPa WSW 4mph /  6.4km/h 4.3mph /  6.9km/h 97% 0in /  0.0mm
03:58 36.9 °F /  2.7 °C 36 °F /  2.2 °C 29.8in /  1009.0hPa WSW 3.8mph /  6.1km/h 4.9mph /  7.9km/h 97% 0in /  0.0mm
04:03 36.9 °F /  2.7 °C 36 °F /  2.2 °C 29.8in /  1009.0hPa WSW 3.8mph /  6.1km/h 4.9mph /  7.9km/h 97% 0in /  0.0mm
04:08 36.9 °F /  2.7 °C 36.1 °F /  2.3 °C 29.8in /  1009.0hPa WSW 3.8mph /  6.1km/h 4.3mph /  6.9km/h 97% 0in /  0.0mm
04:13 36.9 °F /  2.7 °C 36.1 °F /  2.3 °C 29.8in /  1009.0hPa WSW 2.7mph /  4.3km/h 4.3mph /  6.9km/h 97% 0in /  0.0mm
04:18 36.9 °F /  2.7 °C 36 °F /  2.2 °C 29.8in /  1009.0hPa WSW 2.5mph /  4.0km/h 3.8mph /  6.1km/h 97% 0in /  0.0mm
04:23 36.9 °F /  2.7 °C 36 °F /  2.2 °C 29.8in /  1009.0hPa Calm   3.6mph /  5.8km/h 97% 0in /  0.0mm
04:28 36.7 °F /  2.6 °C 35.8 °F /  2.1 °C 29.8in /  1009.0hPa Calm   3.1mph /  5.0km/h 97% 0in /  0.0mm
04:33 36.7 °F /  2.6 °C 35.8 °F /  2.1 °C 29.8in /  1009.0hPa Calm   1.1mph /  1.8km/h 97% 0in /  0.0mm
04:38 36.1 °F /  2.3 °C 35.4 °F /  1.9 °C 29.8in /  1009.0hPa Calm     97% 0in /  0.0mm
04:43 36.1 °F /  2.3 °C 35.2 °F /  1.8 °C 29.8in /  1009.0hPa Calm     97% 0in /  0.0mm
04:48 36 °F /  2.2 °C 35.1 °F /  1.7 °C 29.8in /  1009.0hPa Calm     97% 0in /  0.0mm
04:53 35.8 °F /  2.1 °C 34.9 °F /  1.6 °C 29.8in /  1008.0hPa Calm   3.1mph /  5.0km/h 97% 0in /  0.0mm
04:58 35.4 °F /  1.9 °C 34.9 °F /  1.6 °C 29.8in /  1008.0hPa SW 3.6mph /  5.8km/h 3.6mph /  5.8km/h 97% 0in /  0.0mm
05:03 35.8 °F /  2.1 °C 34.9 °F /  1.6 °C 29.8in /  1008.0hPa Calm   3.8mph /  6.1km/h 97% 0in /  0.0mm
05:08 36.1 °F /  2.3 °C 35.2 °F /  1.8 °C 29.8in /  1008.0hPa West 2.5mph /  4.0km/h 3.8mph /  6.1km/h 97% 0in /  0.0mm
05:13 36.1 °F /  2.3 °C 35.4 °F /  1.9 °C 29.8in /  1008.0hPa Calm   3.4mph /  5.5km/h 97% 0in /  0.0mm
05:18 36.1 °F /  2.3 °C 35.4 °F /  1.9 °C 29.8in /  1008.0hPa Calm   3.4mph /  5.5km/h 97% 0in /  0.0mm
05:23 36.3 °F /  2.4 °C 35.6 °F /  2.0 °C 29.8in /  1008.0hPa Calm     97% 0in /  0.0mm
05:28 36.1 °F /  2.3 °C 35.4 °F /  1.9 °C 29.8in /  1008.0hPa Calm     97% 0in /  0.0mm
05:33 36.1 °F /  2.3 °C 35.4 °F /  1.9 °C 29.8in /  1008.0hPa Calm     97% 0in /  0.0mm
05:38 36.3 °F /  2.4 °C 35.6 °F /  2.0 °C 29.8in /  1008.0hPa West 2.7mph /  4.3km/h 3.8mph /  6.1km/h 97% 0in /  0.0mm
05:43 36.7 °F /  2.6 °C 35.8 °F /  2.1 °C 29.8in /  1008.0hPa West 2.5mph /  4.0km/h 3.8mph /  6.1km/h 97% 0in /  0.0mm
05:48 36.9 °F /  2.7 °C 36.3 °F /  2.4 °C 29.8in /  1008.0hPa West 3.8mph /  6.1km/h 4.7mph /  7.6km/h 98% 0in /  0.0mm
05:54 36.9 °F /  2.7 °C 36.3 °F /  2.4 °C 29.8in /  1008.0hPa West 4.3mph /  6.9km/h 4.7mph /  7.6km/h 98% 0in /  0.0mm
05:59 36.7 °F /  2.6 °C 35.8 °F /  2.1 °C 29.8in /  1008.0hPa WSW 2.9mph /  4.7km/h 4.3mph /  6.9km/h 97% 0in /  0.0mm
06:04 36.3 °F /  2.4 °C 35.6 °F /  2.0 °C 29.8in /  1008.0hPa West 3.4mph /  5.5km/h 4.3mph /  6.9km/h 97% 0in /  0.0mm
06:09 36.1 °F /  2.3 °C 35.4 °F /  1.9 °C 29.8in /  1008.0hPa West 2.9mph /  4.7km/h 4.3mph /  6.9km/h 97% 0in /  0.0mm
06:14 36.1 °F /  2.3 °C 35.4 °F /  1.9 °C 29.8in /  1008.0hPa West 2.9mph /  4.7km/h 3.8mph /  6.1km/h 97% 0in /  0.0mm
06:19 36.1 °F /  2.3 °C 35.4 °F /  1.9 °C 29.8in /  1008.0hPa Calm   3.8mph /  6.1km/h 97% 0in /  0.0mm
06:24 36.1 °F /  2.3 °C 35.2 °F /  1.8 °C 29.8in /  1008.0hPa Calm   3.1mph /  5.0km/h 97% 0in /  0.0mm
06:29 35.8 °F /  2.1 °C 34.9 °F /  1.6 °C 29.8in /  1008.0hPa Calm   2.7mph /  4.3km/h 97% 0in /  0.0mm
06:34 35.4 °F /  1.9 °C 34.9 °F /  1.6 °C 29.8in /  1008.0hPa Calm     97% 0in /  0.0mm
06:39 35.8 °F /  2.1 °C 34.9 °F /  1.6 °C 29.8in /  1008.0hPa Calm     97% 0in /  0.0mm
06:44 36 °F /  2.2 °C 35.1 °F /  1.7 °C 29.8in /  1008.0hPa Calm     97% 0in /  0.0mm
06:49 35.8 °F /  2.1 °C 34.9 °F /  1.6 °C 29.8in /  1008.0hPa Calm     97% 0in /  0.0mm
06:54 35.8 °F /  2.1 °C 34.9 °F /  1.6 °C 29.8in /  1008.0hPa Calm     97% 0in /  0.0mm
06:59 35.8 °F /  2.1 °C 34.9 °F /  1.6 °C 29.8in /  1008.0hPa Calm     97% 0in /  0.0mm
07:04 35.4 °F /  1.9 °C 34.9 °F /  1.6 °C 29.8in /  1008.0hPa WSW 3.1mph /  5.0km/h 3.8mph /  6.1km/h 97% 0in /  0.0mm
07:09 35.8 °F /  2.1 °C 34.9 °F /  1.6 °C 29.8in /  1008.0hPa WSW 3.6mph /  5.8km/h 3.8mph /  6.1km/h 97% 0in /  0.0mm
07:14 35.8 °F /  2.1 °C 34.9 °F /  1.6 °C 29.8in /  1008.0hPa West 3.8mph /  6.1km/h 4.3mph /  6.9km/h 97% 0in /  0.0mm
07:19 36.1 °F /  2.3 °C 35.8 °F /  2.1 °C 29.8in /  1008.0hPa West 4.3mph /  6.9km/h 4.3mph /  6.9km/h 98% 0in /  0.0mm
07:21 36.1 °F /  2.3 °C 35.8 °F /  2.1 °C 29.8in /  1008.0hPa West 3.1mph /  5.0km/h 4.3mph /  6.9km/h 98% 0in /  0.0mm
07:26 36.7 °F /  2.6 °C 36.1 °F /  2.3 °C 29.7in /  1007.0hPa WSW 3.4mph /  5.5km/h 4.3mph /  6.9km/h 98% 0in /  0.0mm
07:31 36.9 °F /  2.7 °C 36.3 °F /  2.4 °C 29.7in /  1007.0hPa WSW 4mph /  6.4km/h 4mph /  6.4km/h 98% 0in /  0.0mm
07:36 36.9 °F /  2.7 °C 36.3 °F /  2.4 °C 29.7in /  1007.0hPa WSW 3.8mph /  6.1km/h 4.3mph /  6.9km/h 98% 0in /  0.0mm
07:41 36.9 °F /  2.7 °C 36.3 °F /  2.4 °C 29.7in /  1007.0hPa West 4.3mph /  6.9km/h 4.9mph /  7.9km/h 98% 0in /  0.0mm
07:46 37 °F /  2.8 °C 36.7 °F /  2.6 °C 29.7in /  1007.0hPa West 3.8mph /  6.1km/h 4.9mph /  7.9km/h 98% 0in /  0.0mm
07:51 37.2 °F /  2.9 °C 36.5 °F /  2.5 °C 29.7in /  1007.0hPa WSW 4.3mph /  6.9km/h 4.9mph /  7.9km/h 97% 0in /  0.0mm
07:56 37.6 °F /  3.1 °C 36.7 °F /  2.6 °C 29.8in /  1008.0hPa WSW 4.3mph /  6.9km/h 4.9mph /  7.9km/h 97% 0in /  0.0mm
08:01 37.6 °F /  3.1 °C 36.7 °F /  2.6 °C 29.8in /  1008.0hPa West 4mph /  6.4km/h 5.4mph /  8.7km/h 97% 0in /  0.0mm
08:06 37.6 °F /  3.1 °C 36.9 °F /  2.7 °C 29.8in /  1008.0hPa WSW 3.8mph /  6.1km/h 5.8mph /  9.3km/h 97% 0in /  0.0mm
08:11 37.6 °F /  3.1 °C 36.9 °F /  2.7 °C 29.8in /  1008.0hPa West 4mph /  6.4km/h 5.8mph /  9.3km/h 97% 0in /  0.0mm
08:16 37.6 °F /  3.1 °C 36.9 °F /  2.7 °C 29.8in /  1008.0hPa WSW 3.4mph /  5.5km/h 4.3mph /  6.9km/h 97% 0in /  0.0mm
08:21 37.6 °F /  3.1 °C 36.7 °F /  2.6 °C 29.8in /  1008.0hPa WSW 3.4mph /  5.5km/h 4mph /  6.4km/h 97% 0in /  0.0mm
08:26 37.6 °F /  3.1 °C 36.7 °F /  2.6 °C 29.8in /  1008.0hPa WSW 2.5mph /  4.0km/h 4mph /  6.4km/h 97% 0in /  0.0mm
08:31 37.2 °F /  2.9 °C 36.5 °F /  2.5 °C 29.8in /  1008.0hPa WSW 2.7mph /  4.3km/h 3.8mph /  6.1km/h 97% 0in /  0.0mm
08:36 37 °F /  2.8 °C 36.3 °F /  2.4 °C 29.8in /  1008.0hPa WSW 2.5mph /  4.0km/h 3.8mph /  6.1km/h 97% 0in /  0.0mm
08:41 36.9 °F /  2.7 °C 36.1 °F /  2.3 °C 29.8in /  1009.0hPa Calm   2.9mph /  4.7km/h 97% 0in /  0.0mm
08:46 36.9 °F /  2.7 °C 36.1 °F /  2.3 °C 29.8in /  1009.0hPa Calm   2.2mph /  3.5km/h 97% 0in /  0.0mm
08:51 36.9 °F /  2.7 °C 36.1 °F /  2.3 °C 29.8in /  1009.0hPa Calm   0.9mph /  1.4km/h 97% 0in /  0.0mm
08:56 37.2 °F /  2.9 °C 36.5 °F /  2.5 °C 29.8in /  1009.0hPa Calm     97% 0in /  0.0mm
09:01 37.2 °F /  2.9 °C 36.5 °F /  2.5 °C 29.8in /  1009.0hPa West 1.1mph /  1.8km/h 1.1mph /  1.8km/h 97% 0in /  0.0mm
09:06 37.6 °F /  3.1 °C 36.9 °F /  2.7 °C 29.8in /  1009.0hPa West 3.6mph /  5.8km/h 4.3mph /  6.9km/h 97% 0in /  0.0mm
09:11 37.8 °F /  3.2 °C 37 °F /  2.8 °C 29.8in /  1008.0hPa WSW 3.1mph /  5.0km/h 4.3mph /  6.9km/h 97% 0in /  0.0mm
09:16 37.8 °F /  3.2 °C 37 °F /  2.8 °C 29.8in /  1008.0hPa West 3.8mph /  6.1km/h 4.3mph /  6.9km/h 97% 0in /  0.0mm
09:21 37.9 °F /  3.3 °C 37.2 °F /  2.9 °C 29.8in /  1008.0hPa West 3.1mph /  5.0km/h 4mph /  6.4km/h 97% 0in /  0.0mm
09:26 38.5 °F /  3.6 °C 37.6 °F /  3.1 °C 29.8in /  1009.0hPa West 3.4mph /  5.5km/h 3.8mph /  6.1km/h 97% 0in /  0.0mm
09:31 38.5 °F /  3.6 °C 37.6 °F /  3.1 °C 29.8in /  1009.0hPa WSW 2.7mph /  4.3km/h 3.6mph /  5.8km/h 97% 0in /  0.0mm
09:36 38.5 °F /  3.6 °C 37.8 °F /  3.2 °C 29.8in /  1009.0hPa WSW 3.6mph /  5.8km/h 4.3mph /  6.9km/h 97% 0.01in /  0.3mm
09:41 38.5 °F /  3.6 °C 37.8 °F /  3.2 °C 29.8in /  1010.0hPa West 4mph /  6.4km/h 4.9mph /  7.9km/h 97% 0.01in /  0.3mm
09:46 38.7 °F /  3.7 °C 37.9 °F /  3.3 °C 29.8in /  1010.0hPa WSW 3.6mph /  5.8km/h 4.9mph /  7.9km/h 97% 0.01in /  0.3mm
09:51 39 °F /  3.9 °C 38.3 °F /  3.5 °C 29.8in /  1010.0hPa West 3.6mph /  5.8km/h 4.3mph /  6.9km/h 97% 0.01in /  0.3mm
09:56 39 °F /  3.9 °C 38.3 °F /  3.5 °C 29.8in /  1009.0hPa West 2.7mph /  4.3km/h 4mph /  6.4km/h 97% 0.01in /  0.3mm
10:01 39.2 °F /  4.0 °C 38.5 °F /  3.6 °C 29.8in /  1009.0hPa WSW 2.9mph /  4.7km/h 4.3mph /  6.9km/h 97% 0.01in /  0.3mm
10:06 39.4 °F /  4.1 °C 38.7 °F /  3.7 °C 29.8in /  1009.0hPa WSW 2.7mph /  4.3km/h 4.3mph /  6.9km/h 97% 0.01in /  0.3mm
10:11 39.6 °F /  4.2 °C 38.8 °F /  3.8 °C 29.8in /  1009.0hPa WSW 2.9mph /  4.7km/h 3.8mph /  6.1km/h 97% 0.01in /  0.3mm
10:16 39.7 °F /  4.3 °C 39 °F /  3.9 °C 29.8in /  1009.0hPa WSW 3.1mph /  5.0km/h 3.8mph /  6.1km/h 97% 0.01in /  0.3mm
10:21 39.9 °F /  4.4 °C 39.2 °F /  4.0 °C 29.8in /  1009.0hPa WSW 3.8mph /  6.1km/h 4.3mph /  6.9km/h 97% 0.01in /  0.3mm
10:26 40.1 °F /  4.5 °C 39.4 °F /  4.1 °C 29.8in /  1008.0hPa WSW 4mph /  6.4km/h 4.9mph /  7.9km/h 97% 0.01in /  0.3mm
10:31 40.1 °F /  4.5 °C 39.4 °F /  4.1 °C 29.8in /  1008.0hPa WSW 4.7mph /  7.6km/h 5.6mph /  9.0km/h 97% 0in /  0.0mm
10:36 40.3 °F /  4.6 °C 39.6 °F /  4.2 °C 29.8in /  1008.0hPa WSW 4.7mph /  7.6km/h 5.6mph /  9.0km/h 97% 0in /  0.0mm
10:41 40.5 °F /  4.7 °C 39.7 °F /  4.3 °C 29.8in /  1009.0hPa WSW 3.6mph /  5.8km/h 5.4mph /  8.7km/h 97% 0in /  0.0mm
10:46 40.8 °F /  4.9 °C 39.9 °F /  4.4 °C 29.8in /  1009.0hPa WSW 5.4mph /  8.7km/h 5.6mph /  9.0km/h 97% 0in /  0.0mm
10:51 41 °F /  5.0 °C 40.3 °F /  4.6 °C 29.8in /  1009.0hPa WSW 5.4mph /  8.7km/h 5.8mph /  9.3km/h 97% 0in /  0.0mm
10:56 41 °F /  5.0 °C 40.3 °F /  4.6 °C 29.8in /  1009.0hPa WSW 4.9mph /  7.9km/h 6mph /  9.7km/h 97% 0in /  0.0mm
11:01 41.2 °F /  5.1 °C 40.5 °F /  4.7 °C 29.8in /  1009.0hPa WSW 5.4mph /  8.7km/h 6mph /  9.7km/h 97% 0in /  0.0mm
11:06 41.4 °F /  5.2 °C 40.6 °F /  4.8 °C 29.8in /  1009.0hPa WSW 4.7mph /  7.6km/h 5.4mph /  8.7km/h 97% 0in /  0.0mm
11:11 41.5 °F /  5.3 °C 40.6 °F /  4.8 °C 29.8in /  1009.0hPa WSW 3.8mph /  6.1km/h 5.4mph /  8.7km/h 97% 0in /  0.0mm
11:16 41.9 °F /  5.5 °C 41.2 °F /  5.1 °C 29.8in /  1009.0hPa WSW 3.6mph /  5.8km/h 5.4mph /  8.7km/h 97% 0in /  0.0mm
11:21 42.1 °F /  5.6 °C 41.4 °F /  5.2 °C 29.8in /  1009.0hPa WSW 3.6mph /  5.8km/h 6.5mph /  10.5km/h 97% 0in /  0.0mm
11:26 42.3 °F /  5.7 °C 41.4 °F /  5.2 °C 29.8in /  1009.0hPa WSW 4.9mph /  7.9km/h 6.5mph /  10.5km/h 97% 0in /  0.0mm
11:31 42.4 °F /  5.8 °C 41.5 °F /  5.3 °C 29.8in /  1009.0hPa WSW 3.8mph /  6.1km/h 6mph /  9.7km/h 97% 0in /  0.0mm
11:36 42.8 °F /  6.0 °C 42.1 °F /  5.6 °C 29.8in /  1009.0hPa WSW 4.9mph /  7.9km/h 6mph /  9.7km/h 97% 0in /  0.0mm
11:41 43.2 °F /  6.2 °C 42.3 °F /  5.7 °C 29.8in /  1009.0hPa WSW 4.3mph /  6.9km/h 6mph /  9.7km/h 97% 0in /  0.0mm
11:46 43.2 °F /  6.2 °C 42.3 °F /  5.7 °C 29.8in /  1009.0hPa WSW 6mph /  9.7km/h 6.5mph /  10.5km/h 97% 0in /  0.0mm
11:51 43.5 °F /  6.4 °C 42.6 °F /  5.9 °C 29.8in /  1009.0hPa WSW 5.8mph /  9.3km/h 7.4mph /  11.9km/h 97% 0in /  0.0mm
11:56 43.5 °F /  6.4 °C 42.6 °F /  5.9 °C 29.8in /  1009.0hPa WSW 4.9mph /  7.9km/h 8.7mph /  14.0km/h 97% 0in /  0.0mm
12:01 43.9 °F /  6.6 °C 43 °F /  6.1 °C 29.8in /  1009.0hPa WSW 6mph /  9.7km/h 8.7mph /  14.0km/h 97% 0in /  0.0mm
12:06 44.1 °F /  6.7 °C 43 °F /  6.1 °C 29.8in /  1009.0hPa West 5.8mph /  9.3km/h 8.5mph /  13.7km/h 96% 0in /  0.0mm
12:11 44.1 °F /  6.7 °C 43 °F /  6.1 °C 29.8in /  1009.0hPa West 8.5mph /  13.7km/h 8.9mph /  14.3km/h 96% 0in /  0.0mm
12:16 44.2 °F /  6.8 °C 43.2 °F /  6.2 °C 29.8in /  1009.0hPa West 6.3mph /  10.1km/h 8.9mph /  14.3km/h 96% 0in /  0.0mm
12:21 44.2 °F /  6.8 °C 43.2 °F /  6.2 °C 29.8in /  1009.0hPa West 6.5mph /  10.5km/h 8.5mph /  13.7km/h 96% 0in /  0.0mm
12:26 44.1 °F /  6.7 °C 43 °F /  6.1 °C 29.8in /  1009.0hPa West 7.6mph /  12.2km/h 10.3mph /  16.6km/h 96% 0in /  0.0mm
12:31 44.1 °F /  6.7 °C 43 °F /  6.1 °C 29.8in /  1009.0hPa West 9.8mph /  15.8km/h 10.5mph /  16.9km/h 96% 0in /  0.0mm
12:36 44.1 °F /  6.7 °C 43 °F /  6.1 °C 29.8in /  1009.0hPa WNW 3.6mph /  5.8km/h 10.7mph /  17.2km/h 96% 0in /  0.0mm
12:41 44.1 °F /  6.7 °C 43 °F /  6.1 °C 29.8in /  1009.0hPa WSW 6mph /  9.7km/h 10.7mph /  17.2km/h 96% 0in /  0.0mm
12:46 44.1 °F /  6.7 °C 43 °F /  6.1 °C 29.8in /  1009.0hPa WSW 5.8mph /  9.3km/h 8.9mph /  14.3km/h 96% 0in /  0.0mm
12:51 43.9 °F /  6.6 °C 42.8 °F /  6.0 °C 29.8in /  1009.0hPa WSW 6mph /  9.7km/h 8.9mph /  14.3km/h 96% 0in /  0.0mm
12:56 43.9 °F /  6.6 °C 42.8 °F /  6.0 °C 29.8in /  1010.0hPa West 5.4mph /  8.7km/h 8.5mph /  13.7km/h 96% 0in /  0.0mm
13:01 44.1 °F /  6.7 °C 43 °F /  6.1 °C 29.8in /  1010.0hPa West 4mph /  6.4km/h 8.5mph /  13.7km/h 96% 0in /  0.0mm
13:06 44.1 °F /  6.7 °C 43 °F /  6.1 °C 29.8in /  1010.0hPa West 4.9mph /  7.9km/h 8.5mph /  13.7km/h 96% 0in /  0.0mm
13:11 44.1 °F /  6.7 °C 43 °F /  6.1 °C 29.8in /  1009.0hPa West 6.3mph /  10.1km/h 8.5mph /  13.7km/h 96% 0in /  0.0mm
13:16 44.1 °F /  6.7 °C 43 °F /  6.1 °C 29.8in /  1009.0hPa West 5.6mph /  9.0km/h 8.5mph /  13.7km/h 96% 0in /  0.0mm
13:21 44.1 °F /  6.7 °C 43 °F /  6.1 °C 29.8in /  1009.0hPa West 2.9mph /  4.7km/h 8.5mph /  13.7km/h 96% 0in /  0.0mm
13:26 44.2 °F /  6.8 °C 43.2 °F /  6.2 °C 29.8in /  1009.0hPa West 7.4mph /  11.9km/h 8.1mph /  13.0km/h 96% 0in /  0.0mm
13:31 44.2 °F /  6.8 °C 43 °F /  6.1 °C 29.8in /  1009.0hPa West 6.3mph /  10.1km/h 7.4mph /  11.9km/h 95% 0in /  0.0mm
13:36 44.2 °F /  6.8 °C 43 °F /  6.1 °C 29.8in /  1009.0hPa WSW 6.3mph /  10.1km/h 7.6mph /  12.2km/h 95% 0in /  0.0mm
13:41 44.2 °F /  6.8 °C 43 °F /  6.1 °C 29.8in /  1008.0hPa West 5.8mph /  9.3km/h 7.6mph /  12.2km/h 95% 0in /  0.0mm
13:46 44.4 °F /  6.9 °C 43.2 °F /  6.2 °C 29.8in /  1008.0hPa West 6mph /  9.7km/h 6.5mph /  10.5km/h 95% 0in /  0.0mm
13:51 44.4 °F /  6.9 °C 43.2 °F /  6.2 °C 29.8in /  1008.0hPa West 3.6mph /  5.8km/h 6.7mph /  10.8km/h 95% 0in /  0.0mm
13:56 44.4 °F /  6.9 °C 43.2 °F /  6.2 °C 29.8in /  1009.0hPa West 4mph /  6.4km/h 6.7mph /  10.8km/h 95% 0in /  0.0mm
14:01 44.4 °F /  6.9 °C 43.2 °F /  6.2 °C 29.8in /  1009.0hPa West 4mph /  6.4km/h 6mph /  9.7km/h 95% 0in /  0.0mm
14:06 44.4 °F /  6.9 °C 43.2 °F /  6.2 °C 29.8in /  1009.0hPa WNW 2.7mph /  4.3km/h 5.6mph /  9.0km/h 95% 0in /  0.0mm
14:11 45 °F /  7.2 °C 43.5 °F /  6.4 °C 29.8in /  1009.0hPa Calm   4.3mph /  6.9km/h 95% 0in /  0.0mm
14:16 45.1 °F /  7.3 °C 43.7 °F /  6.5 °C 29.8in /  1009.0hPa Calm   4.9mph /  7.9km/h 95% 0.01in /  0.3mm
14:21 45.1 °F /  7.3 °C 43.9 °F /  6.6 °C 29.8in /  1009.0hPa WNW 0.9mph /  1.4km/h 4.9mph /  7.9km/h 95% 0.01in /  0.3mm
14:27 45.1 °F /  7.3 °C 43.9 °F /  6.6 °C 29.8in /  1009.0hPa WNW 3.6mph /  5.8km/h 3.8mph /  6.1km/h 95% 0.01in /  0.3mm
14:32 45.1 °F /  7.3 °C 43.9 °F /  6.6 °C 29.8in /  1009.0hPa West 2.5mph /  4.0km/h 4.3mph /  6.9km/h 95% 0.01in /  0.3mm
14:36 45.3 °F /  7.4 °C 44.1 °F /  6.7 °C 29.8in /  1009.0hPa West 3.1mph /  5.0km/h 4.3mph /  6.9km/h 95% 0.01in /  0.3mm
14:42 45.7 °F /  7.6 °C 44.2 °F /  6.8 °C 29.8in /  1009.0hPa NW 2.7mph /  4.3km/h 4.3mph /  6.9km/h 95% 0.01in /  0.3mm
14:47 45.7 °F /  7.6 °C 44.2 °F /  6.8 °C 29.8in /  1009.0hPa West 3.4mph /  5.5km/h 4.9mph /  7.9km/h 95% 0.01in /  0.3mm
14:52 45.7 °F /  7.6 °C 44.2 °F /  6.8 °C 29.8in /  1009.0hPa WNW 2mph /  3.2km/h 5.4mph /  8.7km/h 95% 0.01in /  0.3mm
14:57 45.9 °F /  7.7 °C 44.4 °F /  6.9 °C 29.8in /  1009.0hPa NNW 2.5mph /  4.0km/h 5.4mph /  8.7km/h 95% 0.01in /  0.3mm
15:02 45.9 °F /  7.7 °C 44.6 °F /  7.0 °C 29.8in /  1009.0hPa East 3.1mph /  5.0km/h 4.9mph /  7.9km/h 95% 0.01in /  0.3mm
15:07 45.9 °F /  7.7 °C 44.6 °F /  7.0 °C 29.8in /  1010.0hPa Calm   5.6mph /  9.0km/h 95% 0.01in /  0.3mm
15:12 46 °F /  7.8 °C 44.4 °F /  6.9 °C 29.8in /  1010.0hPa WNW 2.9mph /  4.7km/h 5.6mph /  9.0km/h 94% 0.01in /  0.3mm
15:17 46 °F /  7.8 °C 44.4 °F /  6.9 °C 29.8in /  1010.0hPa NNW 1.1mph /  1.8km/h 4.3mph /  6.9km/h 94% 0in /  0.0mm
15:22 46 °F /  7.8 °C 44.4 °F /  6.9 °C 29.8in /  1010.0hPa Calm   4.3mph /  6.9km/h 94% 0in /  0.0mm
15:27 46.2 °F /  7.9 °C 44.8 °F /  7.1 °C 29.8in /  1010.0hPa NW 2.2mph /  3.5km/h 6.3mph /  10.1km/h 94% 0in /  0.0mm
15:32 46.2 °F /  7.9 °C 44.8 °F /  7.1 °C 29.8in /  1010.0hPa NNW 1.6mph /  2.6km/h 7.8mph /  12.6km/h 94% 0in /  0.0mm
15:37 46 °F /  7.8 °C 44.4 °F /  6.9 °C 29.8in /  1010.0hPa NW 7.6mph /  12.2km/h 10.1mph /  16.3km/h 94% 0in /  0.0mm
15:42 46 °F /  7.8 °C 44.2 °F /  6.8 °C 29.8in /  1010.0hPa WNW 2.7mph /  4.3km/h 10.1mph /  16.3km/h 93% 0in /  0.0mm
15:47 46.2 °F /  7.9 °C 44.4 °F /  6.9 °C 29.8in /  1010.0hPa Calm   5.6mph /  9.0km/h 93% 0in /  0.0mm
15:52 46 °F /  7.8 °C 44.2 °F /  6.8 °C 29.8in /  1010.0hPa Calm   5.6mph /  9.0km/h 93% 0in /  0.0mm
15:57 46 °F /  7.8 °C 44.2 °F /  6.8 °C 29.8in /  1010.0hPa NNW 2mph /  3.2km/h 6mph /  9.7km/h 93% 0in /  0.0mm
16:02 45.9 °F /  7.7 °C 44.2 °F /  6.8 °C 29.8in /  1010.0hPa WNW 2.9mph /  4.7km/h 7.2mph /  11.6km/h 94% 0in /  0.0mm
16:07 45.9 °F /  7.7 °C 44.2 °F /  6.8 °C 29.8in /  1010.0hPa WNW 3.1mph /  5.0km/h 7.4mph /  11.9km/h 94% 0in /  0.0mm
16:12 45.9 °F /  7.7 °C 44.2 °F /  6.8 °C 29.8in /  1010.0hPa West 2.7mph /  4.3km/h 7.4mph /  11.9km/h 94% 0in /  0.0mm
16:17 45.9 °F /  7.7 °C 44.2 °F /  6.8 °C 29.8in /  1010.0hPa SSW 2.7mph /  4.3km/h 6.3mph /  10.1km/h 94% 0in /  0.0mm
16:22 45.9 °F /  7.7 °C 44.2 °F /  6.8 °C 29.8in /  1010.0hPa NW 6.5mph /  10.5km/h 6.5mph /  10.5km/h 94% 0in /  0.0mm
16:27 45.9 °F /  7.7 °C 44.1 °F /  6.7 °C 29.8in /  1010.0hPa West 3.8mph /  6.1km/h 6.5mph /  10.5km/h 94% 0in /  0.0mm
16:32 45.9 °F /  7.7 °C 44.1 °F /  6.7 °C 29.8in /  1010.0hPa Calm   6.5mph /  10.5km/h 94% 0in /  0.0mm
16:37 45.9 °F /  7.7 °C 44.1 °F /  6.7 °C 29.9in /  1011.1hPa Calm   4.9mph /  7.9km/h 94% 0in /  0.0mm
16:42 45.7 °F /  7.6 °C 44.1 °F /  6.7 °C 29.9in /  1011.1hPa West 2.5mph /  4.0km/h 4mph /  6.4km/h 94% 0in /  0.0mm
16:47 45.7 °F /  7.6 °C 44.1 °F /  6.7 °C 29.9in /  1011.1hPa Calm   4mph /  6.4km/h 94% 0in /  0.0mm
16:52 45.3 °F /  7.4 °C 43.9 °F /  6.6 °C 29.9in /  1011.1hPa Calm   4mph /  6.4km/h 94% 0in /  0.0mm
16:57 45.3 °F /  7.4 °C 43.9 °F /  6.6 °C 29.9in /  1011.1hPa West 2.5mph /  4.0km/h 4mph /  6.4km/h 94% 0in /  0.0mm
17:02 45.1 °F /  7.3 °C 43.5 °F /  6.4 °C 29.9in /  1011.1hPa West 2.7mph /  4.3km/h 4mph /  6.4km/h 94% 0in /  0.0mm
17:07 45.1 °F /  7.3 °C 43.3 °F /  6.3 °C 29.9in /  1011.1hPa WSW 3.6mph /  5.8km/h 4.3mph /  6.9km/h 94% 0in /  0.0mm
17:12 45 °F /  7.2 °C 43.5 °F /  6.4 °C 29.9in /  1011.1hPa Calm   4.3mph /  6.9km/h 95% 0in /  0.0mm
17:17 45 °F /  7.2 °C 43.5 °F /  6.4 °C 29.9in /  1011.1hPa Calm   3.8mph /  6.1km/h 95% 0in /  0.0mm
17:22 44.8 °F /  7.1 °C 43.3 °F /  6.3 °C 29.9in /  1011.1hPa Calm     95% 0in /  0.0mm
17:27 44.4 °F /  6.9 °C 43.2 °F /  6.2 °C 29.9in /  1011.1hPa Calm     95% 0in /  0.0mm
17:32 44.2 °F /  6.8 °C 43 °F /  6.1 °C 29.9in /  1011.1hPa WNW 2.5mph /  4.0km/h 2.5mph /  4.0km/h 95% 0in /  0.0mm
17:37 44.2 °F /  6.8 °C 42.8 °F /  6.0 °C 29.9in /  1011.1hPa Calm   2.5mph /  4.0km/h 95% 0in /  0.0mm
17:42 44.1 °F /  6.7 °C 42.6 °F /  5.9 °C 29.9in /  1011.1hPa WNW 2.5mph /  4.0km/h 2.7mph /  4.3km/h 95% 0in /  0.0mm
17:47 43.5 °F /  6.4 °C 42.1 °F /  5.6 °C 29.9in /  1011.1hPa WNW 3.1mph /  5.0km/h 3.1mph /  5.0km/h 95% 0in /  0.0mm
17:52 43.2 °F /  6.2 °C 41.7 °F /  5.4 °C 29.9in /  1011.1hPa Calm   3.1mph /  5.0km/h 95% 0in /  0.0mm
17:57 43 °F /  6.1 °C 41.5 °F /  5.3 °C 29.9in /  1011.1hPa Calm   2.5mph /  4.0km/h 95% 0in /  0.0mm
18:02 43 °F /  6.1 °C 41.5 °F /  5.3 °C 29.9in /  1011.1hPa Calm     95% 0in /  0.0mm
18:07 42.8 °F /  6.0 °C 41.4 °F /  5.2 °C 29.9in /  1011.1hPa Calm     95% 0in /  0.0mm
18:12 42.8 °F /  6.0 °C 41.4 °F /  5.2 °C 29.9in /  1011.1hPa Calm     95% 0in /  0.0mm
18:17 42.8 °F /  6.0 °C 41.4 °F /  5.2 °C 29.9in /  1011.1hPa Calm     95% 0in /  0.0mm
18:22 42.6 °F /  5.9 °C 41.4 °F /  5.2 °C 29.9in /  1011.1hPa Calm     95% 0in /  0.0mm
18:27 42.3 °F /  5.7 °C 41.2 °F /  5.1 °C 29.9in /  1011.1hPa Calm     96% 0in /  0.0mm
18:32 42.1 °F /  5.6 °C 41 °F /  5.0 °C 29.9in /  1011.1hPa Calm     96% 0in /  0.0mm
18:33 42.1 °F /  5.6 °C 41 °F /  5.0 °C 29.9in /  1011.1hPa Calm     96% 0in /  0.0mm
18:38 42.1 °F /  5.6 °C 41 °F /  5.0 °C 29.9in /  1011.1hPa West 3.4mph /  5.5km/h 3.4mph /  5.5km/h 96% 0in /  0.0mm
18:43 41.9 °F /  5.5 °C 40.8 °F /  4.9 °C 29.9in /  1011.1hPa Calm   3.4mph /  5.5km/h 96% 0in /  0.0mm
18:48 41.5 °F /  5.3 °C 40.5 °F /  4.7 °C 29.9in /  1011.1hPa Calm   3.4mph /  5.5km/h 96% 0in /  0.0mm
18:53 41.4 °F /  5.2 °C 40.3 °F /  4.6 °C 29.9in /  1011.1hPa Calm     96% 0in /  0.0mm
18:58 41 °F /  5.0 °C 39.9 °F /  4.4 °C 29.9in /  1011.1hPa Calm     96% 0in /  0.0mm
19:03 40.5 °F /  4.7 °C 39.4 °F /  4.1 °C 29.9in /  1011.1hPa Calm     96% 0in /  0.0mm
19:08 40.3 °F /  4.6 °C 39.2 °F /  4.0 °C 29.9in /  1012.1hPa Calm     96% 0in /  0.0mm
19:13 40.3 °F /  4.6 °C 39.2 °F /  4.0 °C 29.9in /  1012.1hPa Calm     96% 0in /  0.0mm
19:18 40.5 °F /  4.7 °C 39.4 °F /  4.1 °C 29.9in /  1012.1hPa Calm     96% 0in /  0.0mm
19:23 40.5 °F /  4.7 °C 39.4 °F /  4.1 °C 29.9in /  1012.1hPa Calm     96% 0in /  0.0mm
19:28 40.3 °F /  4.6 °C 39.2 °F /  4.0 °C 29.9in /  1012.1hPa Calm     96% 0in /  0.0mm
19:33 40.5 °F /  4.7 °C 39.4 °F /  4.1 °C 29.9in /  1012.1hPa Calm     96% 0in /  0.0mm
19:38 40.6 °F /  4.8 °C 39.9 °F /  4.4 °C 29.9in /  1012.1hPa Calm     97% 0in /  0.0mm
19:48 40.8 °F /  4.9 °C 39.7 °F /  4.3 °C 29.9in /  1012.1hPa Calm     96% 0in /  0.0mm
19:53 40.8 °F /  4.9 °C 39.7 °F /  4.3 °C 29.9in /  1012.1hPa Calm     96% 0in /  0.0mm
19:58 40.6 °F /  4.8 °C 39.9 °F /  4.4 °C 29.9in /  1012.1hPa Calm     97% 0in /  0.0mm
20:03 40.8 °F /  4.9 °C 39.7 °F /  4.3 °C 29.9in /  1012.1hPa Calm     96% 0in /  0.0mm
20:08 40.8 °F /  4.9 °C 39.7 °F /  4.3 °C 29.9in /  1012.1hPa Calm     96% 0in /  0.0mm
20:13 41 °F /  5.0 °C 39.9 °F /  4.4 °C 29.9in /  1012.1hPa Calm     96% 0in /  0.0mm
20:18 41.2 °F /  5.1 °C 40.1 °F /  4.5 °C 29.9in /  1012.1hPa Calm     96% 0in /  0.0mm
20:23 41.4 °F /  5.2 °C 40.3 °F /  4.6 °C 29.9in /  1011.1hPa Calm     96% 0in /  0.0mm
20:28 41.4 °F /  5.2 °C 40.3 °F /  4.6 °C 29.9in /  1011.1hPa Calm     96% 0in /  0.0mm
20:33 41.5 °F /  5.3 °C 40.5 °F /  4.7 °C 29.9in /  1011.1hPa Calm     96% 0in /  0.0mm
20:38 41.9 °F /  5.5 °C 40.8 °F /  4.9 °C 29.9in /  1012.1hPa West 3.4mph /  5.5km/h 4mph /  6.4km/h 96% 0in /  0.0mm
20:43 41.9 °F /  5.5 °C 40.8 °F /  4.9 °C 29.9in /  1012.1hPa West 3.1mph /  5.0km/h 4mph /  6.4km/h 96% 0in /  0.0mm
20:48 41.9 °F /  5.5 °C 40.8 °F /  4.9 °C 29.9in /  1012.1hPa WSW 2.7mph /  4.3km/h 4mph /  6.4km/h 96% 0in /  0.0mm
20:53 41.9 °F /  5.5 °C 40.8 °F /  4.9 °C 29.9in /  1012.1hPa WSW 3.8mph /  6.1km/h 4mph /  6.4km/h 96% 0in /  0.0mm
20:58 42.1 °F /  5.6 °C 41 °F /  5.0 °C 29.9in /  1012.1hPa WSW 3.8mph /  6.1km/h 3.8mph /  6.1km/h 96% 0in /  0.0mm
21:03 42.1 °F /  5.6 °C 41 °F /  5.0 °C 29.9in /  1012.1hPa WSW 4.3mph /  6.9km/h 4.3mph /  6.9km/h 96% 0in /  0.0mm
21:08 42.3 °F /  5.7 °C 41.2 °F /  5.1 °C 29.9in /  1013.1hPa West 3.4mph /  5.5km/h 4.3mph /  6.9km/h 96% 0in /  0.0mm
21:13 42.3 °F /  5.7 °C 41.2 °F /  5.1 °C 29.9in /  1013.1hPa West 3.8mph /  6.1km/h 4.9mph /  7.9km/h 96% 0in /  0.0mm
21:18 42.4 °F /  5.8 °C 41.4 °F /  5.2 °C 29.9in /  1013.1hPa West 4.9mph /  7.9km/h 5.4mph /  8.7km/h 96% 0in /  0.0mm
21:23 42.4 °F /  5.8 °C 41.4 °F /  5.2 °C 29.9in /  1013.1hPa West 4mph /  6.4km/h 5.4mph /  8.7km/h 96% 0in /  0.0mm
21:28 42.4 °F /  5.8 °C 41.4 °F /  5.2 °C 29.9in /  1013.1hPa WSW 2.5mph /  4.0km/h 4.9mph /  7.9km/h 96% 0in /  0.0mm
21:33 42.4 °F /  5.8 °C 41.4 °F /  5.2 °C 29.9in /  1013.1hPa WSW 2.5mph /  4.0km/h 4.9mph /  7.9km/h 96% 0in /  0.0mm
21:38 42.4 °F /  5.8 °C 41.4 °F /  5.2 °C 29.9in /  1013.1hPa WSW 3.6mph /  5.8km/h 4.3mph /  6.9km/h 96% 0in /  0.0mm
21:44 42.4 °F /  5.8 °C 41.4 °F /  5.2 °C 29.9in /  1013.1hPa WSW 3.1mph /  5.0km/h 4.3mph /  6.9km/h 96% 0in /  0.0mm
21:48 42.4 °F /  5.8 °C 41.4 °F /  5.2 °C 29.9in /  1013.1hPa WSW 3.6mph /  5.8km/h 4mph /  6.4km/h 96% 0in /  0.0mm
21:54 42.4 °F /  5.8 °C 41.4 °F /  5.2 °C 29.9in /  1013.1hPa WSW 2.7mph /  4.3km/h 3.6mph /  5.8km/h 96% 0in /  0.0mm
21:59 42.4 °F /  5.8 °C 41.4 °F /  5.2 °C 29.9in /  1013.1hPa WSW 2.2mph /  3.5km/h 3.6mph /  5.8km/h 96% 0in /  0.0mm
22:04 42.3 °F /  5.7 °C 41.2 °F /  5.1 °C 29.9in /  1013.1hPa WSW 3.1mph /  5.0km/h 3.4mph /  5.5km/h 96% 0in /  0.0mm
22:09 42.3 °F /  5.7 °C 41.2 °F /  5.1 °C 29.9in /  1012.1hPa WSW 3.4mph /  5.5km/h 4mph /  6.4km/h 96% 0in /  0.0mm
22:14 42.4 °F /  5.8 °C 41.4 °F /  5.2 °C 29.9in /  1012.1hPa WSW 5.4mph /  8.7km/h 5.4mph /  8.7km/h 96% 0in /  0.0mm
22:19 42.4 °F /  5.8 °C 41.4 °F /  5.2 °C 29.9in /  1012.1hPa WSW 3.4mph /  5.5km/h 5.4mph /  8.7km/h 96% 0in /  0.0mm
22:24 42.4 °F /  5.8 °C 41.4 °F /  5.2 °C 29.9in /  1013.1hPa West 3.8mph /  6.1km/h 4.9mph /  7.9km/h 96% 0in /  0.0mm
22:29 42.6 °F /  5.9 °C 41.5 °F /  5.3 °C 29.9in /  1013.1hPa West 2.7mph /  4.3km/h 4.3mph /  6.9km/h 96% 0in /  0.0mm
22:34 42.6 °F /  5.9 °C 41.5 °F /  5.3 °C 29.9in /  1013.1hPa West 2.9mph /  4.7km/h 4.3mph /  6.9km/h 96% 0in /  0.0mm
22:39 42.8 °F /  6.0 °C 41.7 °F /  5.4 °C 29.9in /  1013.1hPa Calm   3.8mph /  6.1km/h 96% 0in /  0.0mm
22:44 42.6 °F /  5.9 °C 41.4 °F /  5.2 °C 29.9in /  1013.1hPa Calm   3.1mph /  5.0km/h 95% 0in /  0.0mm
22:49 42.4 °F /  5.8 °C 41.4 °F /  5.2 °C 29.9in /  1013.1hPa Calm     96% 0in /  0.0mm
22:54 42.6 °F /  5.9 °C 41.4 °F /  5.2 °C 29.9in /  1013.1hPa WSW 4mph /  6.4km/h 4mph /  6.4km/h 95% 0in /  0.0mm
22:59 42.6 °F /  5.9 °C 41.4 °F /  5.2 °C 29.9in /  1013.1hPa West 3.6mph /  5.8km/h 4mph /  6.4km/h 95% 0in /  0.0mm
23:04 42.4 °F /  5.8 °C 41.4 °F /  5.2 °C 29.9in /  1013.1hPa WSW 3.1mph /  5.0km/h 4mph /  6.4km/h 96% 0in /  0.0mm
23:09 42.3 °F /  5.7 °C 41.2 °F /  5.1 °C 29.9in /  1013.1hPa West 2.7mph /  4.3km/h 3.8mph /  6.1km/h 96% 0in /  0.0mm
23:14 42.4 °F /  5.8 °C 41.4 °F /  5.2 °C 29.9in /  1013.1hPa Calm   3.6mph /  5.8km/h 96% 0in /  0.0mm
23:19 42.6 °F /  5.9 °C 41.4 °F /  5.2 °C 29.9in /  1013.1hPa West 3.8mph /  6.1km/h 4.3mph /  6.9km/h 95% 0in /  0.0mm
23:24 42.6 °F /  5.9 °C 41.4 °F /  5.2 °C 29.9in /  1012.1hPa WSW 3.6mph /  5.8km/h 4.3mph /  6.9km/h 95% 0in /  0.0mm
23:29 42.4 °F /  5.8 °C 41.4 °F /  5.2 °C 29.9in /  1012.1hPa WSW 3.1mph /  5.0km/h 4.3mph /  6.9km/h 96% 0in /  0.0mm
23:34 42.4 °F /  5.8 °C 41.4 °F /  5.2 °C 29.9in /  1012.1hPa WSW 2.7mph /  4.3km/h 4.3mph /  6.9km/h 96% 0in /  0.0mm
23:39 42.4 °F /  5.8 °C 41.4 °F /  5.2 °C 29.9in /  1012.1hPa WSW 5.6mph /  9.0km/h 6.5mph /  10.5km/h 96% 0in /  0.0mm
23:44 42.6 °F /  5.9 °C 41.4 °F /  5.2 °C 29.9in /  1012.1hPa WSW 4mph /  6.4km/h 6.5mph /  10.5km/h 95% 0in /  0.0mm
23:49 42.6 °F /  5.9 °C 41.5 °F /  5.3 °C 29.9in /  1012.1hPa WSW 4.3mph /  6.9km/h 6.3mph /  10.1km/h 96% 0in /  0.0mm
23:54 42.6 °F /  5.9 °C 41.4 °F /  5.2 °C 29.9in /  1012.1hPa WSW 5.4mph /  8.7km/h 6.3mph /  10.1km/h 95% 0in /  0.0mm
23:59 42.6 °F /  5.9 °C 41.5 °F /  5.3 °C 29.9in /  1012.1hPa WSW 3.6mph /  5.8km/h 5.8mph /  9.3km/h 96% 0in /  0.0mm
Données Historique de Météo Turbie

Mise a jour : 25/05/2018 06:44:27
Généré par Cumulus 1.9.4 (1099)